Time;durP1;ratioP1;P1;durP2;ratioP2;P2;SDS_P1;SDS_P2;PMS_P1;PMS_P2;Temp;Humidity;BMP_temperature;BMP_pressure;BME280_temperature;BME280_humidity;BME280_pressure;Samples;Min_cycle;Max_cycle;Signal;HPM_P1;HPM_P2
2023/02/16 00:01:19;;;;;;;;;;;;;;;12.64;41.77;101965.47;5012076;28;19917;-71
2023/02/16 00:04:30;;;;;;;;;;;;;;;12.63;41.57;101994.66;4998753;28;20382;-71
2023/02/16 00:07:22;;;;;;;;;;;;;;;12.68;42.01;101989.13;5010389;28;19917;-71
2023/02/16 00:10:14;;;;;;;;;;;;;;;12.69;41.72;101992.66;5012439;28;19913;-71
2023/02/16 00:16:24;;;;;;;;;;;;;;;12.57;41.79;101989.56;5024582;28;19918;-71
2023/02/16 00:19:18;;;;;;;;;;;;;;;12.28;42.35;101987.03;5026056;28;19920;-71
2023/02/16 00:22:09;;;;;;;;;;;;;;;12.09;42.55;101983.50;5028536;28;19917;-71
2023/02/16 00:25:01;;;;;;;;;;;;;;;11.90;43.13;101981.53;5019769;28;19914;-70
2023/02/16 00:27:51;;;;;;;;;;;;;;;12.03;42.73;101985.47;5010939;28;19913;-72
2023/02/16 00:30:44;;;;;;;;;;;;;;;12.07;42.60;101991.97;5009817;28;20394;-71
2023/02/16 00:33:36;;;;;;;;;;;;;;;11.99;42.46;101987.16;5004616;28;19913;-71
2023/02/16 00:36:28;;;;;;;;;;;;;;;11.80;42.34;101980.88;5031090;28;19917;-71
2023/02/16 00:39:20;;;;;;;;;;;;;;;11.84;42.32;101974.53;5016443;28;19917;-71
2023/02/16 00:42:28;;;;;;;;;;;;;;;11.81;42.40;101980.59;5018565;28;19913;-71
2023/02/16 00:45:23;;;;;;;;;;;;;;;11.73;42.48;101974.97;5022293;28;19917;-70
2023/02/16 00:48:15;;;;;;;;;;;;;;;11.57;42.85;101971.59;5032424;28;19913;-71
2023/02/16 00:51:07;;;;;;;;;;;;;;;11.54;42.74;101977.59;4996699;28;20382;-71
2023/02/16 00:53:59;;;;;;;;;;;;;;;11.45;42.98;101965.75;5009747;28;20499;-71
2023/02/16 00:56:51;;;;;;;;;;;;;;;11.47;42.58;101974.44;5007747;28;20370;-71
2023/02/16 00:59:43;;;;;;;;;;;;;;;11.38;43.03;101978.88;5013250;28;19913;-71
2023/02/16 01:02:33;;;;;;;;;;;;;;;11.34;43.21;101980.56;5012770;28;19921;-71
2023/02/16 01:05:25;;;;;;;;;;;;;;;11.30;43.18;101980.34;5005546;28;19914;-71
2023/02/16 01:11:26;;;;;;;;;;;;;;;11.42;43.01;101982.66;5013270;28;19914;-71
2023/02/16 01:14:18;;;;;;;;;;;;;;;11.40;42.93;101971.25;5000135;28;19913;-71
2023/02/16 01:17:10;;;;;;;;;;;;;;;11.29;43.08;101973.25;5008509;28;20378;-71
2023/02/16 01:20:02;;;;;;;;;;;;;;;11.26;43.00;101970.31;5000653;28;19914;-71
2023/02/16 01:22:56;;;;;;;;;;;;;;;11.35;42.79;101969.38;5009128;28;19913;-71
2023/02/16 01:25:48;;;;;;;;;;;;;;;11.34;42.58;101967.75;5028871;28;19913;-71
2023/02/16 01:28:40;;;;;;;;;;;;;;;11.28;42.25;101970.81;5014806;28;19913;-71
2023/02/16 01:31:32;;;;;;;;;;;;;;;11.13;42.47;101975.34;5015519;28;19913;-71
2023/02/16 01:34:24;;;;;;;;;;;;;;;11.19;42.46;101964.38;5015729;28;19913;-71
2023/02/16 01:37:17;;;;;;;;;;;;;;;11.17;42.58;101972.06;5016011;28;19917;-70
2023/02/16 01:40:15;;;;;;;;;;;;;;;11.13;42.65;101972.59;5004017;28;19922;-71
2023/02/16 01:43:16;;;;;;;;;;;;;;;11.17;42.57;101964.69;5010749;28;20298;-71
2023/02/16 01:46:11;;;;;;;;;;;;;;;11.06;42.64;101966.72;4997287;28;19917;-70
2023/02/16 01:49:03;;;;;;;;;;;;;;;11.10;42.63;101965.03;4998398;28;19913;-71
2023/02/16 01:52:16;;;;;;;;;;;;;;;11.17;42.29;101959.25;5009347;28;19921;-70
2023/02/16 01:55:15;;;;;;;;;;;;;;;11.06;42.12;101963.19;4998752;28;19913;-71
2023/02/16 01:58:10;;;;;;;;;;;;;;;11.12;42.40;101951.94;5009513;28;19913;-71
2023/02/16 02:01:03;;;;;;;;;;;;;;;11.08;42.44;101960.97;5000307;28;19917;-71
2023/02/16 02:07:03;;;;;;;;;;;;;;;10.94;42.73;101955.38;5003093;28;20310;-71
2023/02/16 02:10:08;;;;;;;;;;;;;;;10.94;42.93;101943.69;5020658;28;19917;-70
2023/02/16 02:13:05;;;;;;;;;;;;;;;10.89;42.76;101946.47;5000922;28;19917;-71
2023/02/16 02:15:57;;;;;;;;;;;;;;;10.81;42.90;101945.19;4991335;28;20293;-72
2023/02/16 02:18:51;;;;;;;;;;;;;;;10.78;43.21;101951.19;5030446;28;19914;-71
2023/02/16 02:25:16;;;;;;;;;;;;;;;10.75;42.77;101943.59;5021975;28;19913;-71
2023/02/16 02:28:24;;;;;;;;;;;;;;;10.71;42.29;101945.28;5012901;28;19914;-71
2023/02/16 02:31:39;;;;;;;;;;;;;;;10.72;42.40;101949.59;4988581;28;19913;-71
2023/02/16 02:34:43;;;;;;;;;;;;;;;10.73;42.35;101940.34;4970087;28;19914;-71
2023/02/16 02:37:51;;;;;;;;;;;;;;;10.70;42.82;101946.38;5002225;28;19917;-71
2023/02/16 02:40:47;;;;;;;;;;;;;;;10.67;42.67;101938.75;5004809;28;19914;-70
2023/02/16 02:43:56;;;;;;;;;;;;;;;10.62;42.99;101939.63;5006123;28;19913;-71
2023/02/16 02:46:48;;;;;;;;;;;;;;;10.62;43.04;101931.47;4999341;28;19940;-70
2023/02/16 02:49:41;;;;;;;;;;;;;;;10.53;43.42;101940.53;5015805;28;19917;-71
2023/02/16 02:52:33;;;;;;;;;;;;;;;10.53;43.25;101935.91;5016965;28;19914;-71
2023/02/16 03:01:44;;;;;;;;;;;;;;;10.53;42.91;101933.19;5003261;28;20298;-70
2023/02/16 03:04:36;;;;;;;;;;;;;;;10.40;43.42;101927.59;4998888;28;20454;-71
2023/02/16 03:07:45;;;;;;;;;;;;;;;10.27;43.22;101931.75;5009523;28;19917;-71
2023/02/16 03:13:58;;;;;;;;;;;;;;;10.22;43.16;101935.31;5012413;28;19917;-70
2023/02/16 03:16:58;;;;;;;;;;;;;;;;;;;;;
2023/02/16 03:29:21;;;;;;;;;;;;;;;9.77;44.13;101932.84;5030364;28;19917;-70
2023/02/16 03:32:10;;;;;;;;;;;;;;;9.79;43.86;101941.53;5016550;28;19913;-71
2023/02/16 03:35:02;;;;;;;;;;;;;;;9.69;43.96;101933.44;5017172;28;19913;-71
2023/02/16 03:37:54;;;;;;;;;;;;;;;9.69;43.96;101931.56;4979800;28;20387;-70
2023/02/16 03:40:46;;;;;;;;;;;;;;;9.64;44.08;101937.00;5003012;28;20011;-71
2023/02/16 03:43:38;;;;;;;;;;;;;;;9.78;43.74;101935.31;4998513;28;19913;-70
2023/02/16 03:46:27;;;;;;;;;;;;;;;9.76;43.77;101934.75;5012848;28;19917;-70
2023/02/16 03:49:19;;;;;;;;;;;;;;;9.73;43.69;101926.38;5021704;28;19913;-70
2023/02/16 03:52:11;;;;;;;;;;;;;;;9.59;44.02;101936.22;5018196;28;19913;-71
2023/02/16 03:55:03;;;;;;;;;;;;;;;9.65;43.76;101929.69;5015601;28;19913;-70
2023/02/16 03:57:55;;;;;;;;;;;;;;;9.58;44.02;101931.88;5018723;28;19917;-70
2023/02/16 04:00:47;;;;;;;;;;;;;;;9.51;44.32;101936.78;5032853;28;19913;-71
2023/02/16 04:03:39;;;;;;;;;;;;;;;9.50;44.23;101937.88;5032938;28;20309;-71
2023/02/16 04:06:31;;;;;;;;;;;;;;;9.43;44.50;101936.28;5030898;28;19925;-71
2023/02/16 04:09:23;;;;;;;;;;;;;;;9.41;44.45;101943.06;5014554;28;19913;-71
2023/02/16 04:15:24;;;;;;;;;;;;;;;9.51;43.81;101942.22;5029276;28;19913;-70
2023/02/16 04:18:14;;;;;;;;;;;;;;;9.47;44.02;101944.66;5015199;28;19913;-70
2023/02/16 04:21:04;;;;;;;;;;;;;;;9.55;43.70;101954.16;5012742;28;20301;-71
2023/02/16 04:23:56;;;;;;;;;;;;;;;9.59;43.47;101947.06;5012771;28;19913;-70
2023/02/16 04:26:48;;;;;;;;;;;;;;;9.61;43.48;101958.47;5012965;28;19913;-71
2023/02/16 04:29:40;;;;;;;;;;;;;;;9.72;43.25;101954.59;5010326;28;19917;-70
2023/02/16 04:32:32;;;;;;;;;;;;;;;9.59;43.34;101955.22;5016827;28;19921;-71
2023/02/16 04:35:24;;;;;;;;;;;;;;;9.58;43.04;101956.31;5032097;28;19913;-71
2023/02/16 04:38:16;;;;;;;;;;;;;;;9.54;43.24;101958.78;5012618;28;19913;-71
2023/02/16 04:41:08;;;;;;;;;;;;;;;9.55;43.39;101959.59;5015494;28;19913;-70
2023/02/16 04:44:00;;;;;;;;;;;;;;;9.62;43.09;101951.94;5012657;28;19913;-71
2023/02/16 04:46:52;;;;;;;;;;;;;;;9.70;42.84;101962.25;4998125;28;19913;-70
2023/02/16 04:49:44;;;;;;;;;;;;;;;9.70;42.73;101957.59;5012526;28;20302;-70
2023/02/16 04:52:36;;;;;;;;;;;;;;;9.65;42.92;101956.84;5013292;28;20333;-70
2023/02/16 04:55:28;;;;;;;;;;;;;;;9.62;42.95;101962.81;5028560;28;19913;-71
2023/02/16 04:58:17;;;;;;;;;;;;;;;9.64;42.92;101961.44;5031576;28;19913;-70
2023/02/16 05:01:10;;;;;;;;;;;;;;;9.59;42.90;101957.94;5021598;28;20293;-70
2023/02/16 05:04:02;;;;;;;;;;;;;;;9.54;42.84;101966.91;5017336;28;20309;-71
2023/02/16 05:06:54;;;;;;;;;;;;;;;9.51;42.89;101958.50;5025721;28;20297;-71
2023/02/16 05:09:46;;;;;;;;;;;;;;;9.50;43.05;101956.91;5032114;28;19913;-70
2023/02/16 05:15:41;;;;;;;;;;;;;;;9.43;43.28;101960.72;5023874;28;20370;-70
2023/02/16 05:18:33;;;;;;;;;;;;;;;9.47;43.14;101954.72;5003981;28;19913;-71
2023/02/16 05:21:34;;;;;;;;;;;;;;;9.53;42.80;101959.03;5023263;28;19917;-71
2023/02/16 05:24:24;;;;;;;;;;;;;;;9.57;42.68;101963.63;5013566;28;19917;-71
2023/02/16 05:27:16;;;;;;;;;;;;;;;9.49;42.75;101953.38;5008899;28;19913;-71
2023/02/16 05:30:08;;;;;;;;;;;;;;;9.32;42.94;101961.00;5011616;28;19914;-71
2023/02/16 05:33:00;;;;;;;;;;;;;;;9.34;42.78;101961.56;5005151;28;19914;-70
2023/02/16 05:35:52;;;;;;;;;;;;;;;9.28;43.09;101966.19;5001635;28;19925;-70
2023/02/16 05:38:44;;;;;;;;;;;;;;;9.41;43.08;101964.78;5002824;28;19913;-71
2023/02/16 05:41:36;;;;;;;;;;;;;;;9.39;43.15;101969.69;4988019;28;19914;-71
2023/02/16 05:44:28;;;;;;;;;;;;;;;9.27;43.11;101978.13;5004327;28;20371;-70
2023/02/16 05:47:20;;;;;;;;;;;;;;;9.48;43.02;101976.16;5000042;28;19914;-70
2023/02/16 05:50:12;;;;;;;;;;;;;;;9.63;42.66;101986.16;4979887;28;20305;-70
2023/02/16 05:53:04;;;;;;;;;;;;;;;9.73;42.66;101977.97;5004884;28;19913;-70
2023/02/16 05:55:55;;;;;;;;;;;;;;;9.92;43.37;101981.69;4992706;28;19921;-71
2023/02/16 05:58:47;;;;;;;;;;;;;;;9.95;42.94;101989.28;5016563;28;20297;-70
2023/02/16 06:01:39;;;;;;;;;;;;;;;10.02;43.11;101978.09;5013141;28;19913;-70
2023/02/16 06:04:31;;;;;;;;;;;;;;;10.02;42.87;101986.25;5001705;28;19913;-71
2023/02/16 06:07:23;;;;;;;;;;;;;;;10.04;43.06;101993.03;4996467;28;19913;-70
2023/02/16 06:10:15;;;;;;;;;;;;;;;9.99;43.26;102001.22;5008021;28;19917;-71
2023/02/16 06:13:07;;;;;;;;;;;;;;;10.01;43.37;102003.63;5010194;28;20385;-70
2023/02/16 06:15:58;;;;;;;;;;;;;;;9.97;43.38;101999.84;5015097;28;19913;-71
2023/02/16 06:18:50;;;;;;;;;;;;;;;9.83;43.71;102002.38;5001322;28;19913;-70
2023/02/16 06:21:42;;;;;;;;;;;;;;;9.78;43.83;101997.78;5001274;28;20386;-71
2023/02/16 06:24:29;;;;;;;;;;;;;;;9.80;44.33;101994.78;5003224;28;19921;-70
2023/02/16 06:27:19;;;;;;;;;;;;;;;9.82;44.43;102011.59;4980594;28;20310;-71
2023/02/16 06:30:11;;;;;;;;;;;;;;;9.70;44.49;102008.41;5005372;28;20290;-71
2023/02/16 06:33:00;;;;;;;;;;;;;;;9.55;44.96;102006.53;5006354;28;19914;-71
2023/02/16 06:35:52;;;;;;;;;;;;;;;9.54;45.21;102010.38;5000080;28;20315;-70
2023/02/16 06:38:44;;;;;;;;;;;;;;;9.60;45.20;102016.59;5010577;28;19917;-71
2023/02/16 06:41:36;;;;;;;;;;;;;;;9.62;45.35;102014.41;5018719;28;19913;-71
2023/02/16 06:44:28;;;;;;;;;;;;;;;9.66;45.33;102016.28;4997583;28;20586;-71
2023/02/16 06:47:20;;;;;;;;;;;;;;;9.63;45.53;102025.00;5022425;28;19913;-70
2023/02/16 06:50:12;;;;;;;;;;;;;;;9.50;45.86;102030.22;5029148;28;19917;-70
2023/02/16 06:53:04;;;;;;;;;;;;;;;9.49;46.22;102031.28;5003477;28;20382;-70
2023/02/16 06:55:56;;;;;;;;;;;;;;;9.44;46.20;102027.50;4997490;28;20540;-71
2023/02/16 06:58:47;;;;;;;;;;;;;;;9.42;46.42;102035.09;5013009;28;19917;-71
2023/02/16 07:01:39;;;;;;;;;;;;;;;9.44;46.48;102037.53;5010972;28;19921;-70
2023/02/16 07:04:31;;;;;;;;;;;;;;;9.39;46.84;102038.38;5000096;28;20579;-73
2023/02/16 07:07:23;;;;;;;;;;;;;;;9.35;46.74;102039.97;5012778;28;19914;-72
2023/02/16 07:10:15;;;;;;;;;;;;;;;9.32;46.90;102039.72;5002430;28;19913;-73
2023/02/16 07:13:07;;;;;;;;;;;;;;;9.27;47.09;102042.44;5014036;28;19914;-72
2023/02/16 07:15:59;;;;;;;;;;;;;;;9.38;47.15;102044.06;5006166;28;19914;-73
2023/02/16 07:18:51;;;;;;;;;;;;;;;9.26;47.21;102047.06;5001383;28;19914;-73
2023/02/16 07:21:43;;;;;;;;;;;;;;;9.68;46.98;102052.13;5006147;28;19913;-72
2023/02/16 07:24:35;;;;;;;;;;;;;;;9.82;46.66;102049.63;4992186;28;19913;-73
2023/02/16 07:27:27;;;;;;;;;;;;;;;9.83;46.58;102057.53;5014005;28;19913;-72
2023/02/16 07:30:19;;;;;;;;;;;;;;;9.69;47.19;102055.66;5033325;28;19912;-73
2023/02/16 07:33:11;;;;;;;;;;;;;;;9.65;47.52;102055.38;4979729;28;19913;-73
2023/02/16 07:36:01;;;;;;;;;;;;;;;9.63;48.13;102051.34;4979931;28;19914;-72
2023/02/16 07:38:53;;;;;;;;;;;;;;;9.64;47.89;102055.69;5001096;28;19935;-72
2023/02/16 07:41:43;;;;;;;;;;;;;;;9.48;47.87;102032.38;5000870;28;19913;-72
2023/02/16 07:44:32;;;;;;;;;;;;;;;9.61;48.13;102051.59;5014267;28;20003;-72
2023/02/16 07:47:22;;;;;;;;;;;;;;;9.61;48.18;102053.50;4994091;28;20337;-73
2023/02/16 07:50:14;;;;;;;;;;;;;;;9.52;48.04;102028.81;5031765;28;19913;-73
2023/02/16 07:53:04;;;;;;;;;;;;;;;9.72;48.32;102060.53;5022601;28;19913;-72
2023/02/16 07:55:54;;;;;;;;;;;;;;;9.81;48.27;102067.03;5015450;28;19913;-73
2023/02/16 07:58:46;;;;;;;;;;;;;;;9.84;48.42;102069.22;4998754;28;19917;-73
2023/02/16 08:01:38;;;;;;;;;;;;;;;9.90;48.22;102070.81;4986001;28;19913;-73
2023/02/16 08:04:30;;;;;;;;;;;;;;;9.99;48.18;102071.88;5005599;28;19913;-73
2023/02/16 08:07:22;;;;;;;;;;;;;;;10.04;48.34;102079.19;5015828;28;19918;-72
2023/02/16 08:10:14;;;;;;;;;;;;;;;10.07;48.46;102074.00;5023290;28;19913;-72
2023/02/16 08:13:06;;;;;;;;;;;;;;;10.10;48.88;102078.91;5024857;28;19913;-73
2023/02/16 08:15:59;;;;;;;;;;;;;;;10.16;49.10;102080.50;5018888;28;19913;-73
2023/02/16 08:18:51;;;;;;;;;;;;;;;10.22;49.34;102076.69;5015689;28;19917;-73
2023/02/16 08:21:43;;;;;;;;;;;;;;;10.28;49.69;102074.75;5012171;28;20294;-73
2023/02/16 08:24:35;;;;;;;;;;;;;;;10.35;49.88;102077.97;5013531;28;19913;-73
2023/02/16 08:27:24;;;;;;;;;;;;;;;10.39;49.92;102070.88;5012626;28;19917;-74
2023/02/16 08:30:16;;;;;;;;;;;;;;;10.47;50.00;102074.91;5004482;28;20399;-74
2023/02/16 08:33:08;;;;;;;;;;;;;;;10.49;50.54;102076.28;4992490;28;20298;-74
2023/02/16 08:35:58;;;;;;;;;;;;;;;10.53;50.74;102085.47;5007909;28;19913;-73
2023/02/16 08:38:50;;;;;;;;;;;;;;;10.62;50.92;102085.69;5006017;28;19922;-73
2023/02/16 08:41:43;;;;;;;;;;;;;;;10.62;51.20;102080.25;5005497;28;20390;-72
2023/02/16 08:44:35;;;;;;;;;;;;;;;10.64;51.15;102084.34;5009421;28;19917;-73
2023/02/16 08:47:27;;;;;;;;;;;;;;;10.68;50.91;102084.56;5006659;28;19914;-72
2023/02/16 08:50:19;;;;;;;;;;;;;;;10.73;51.13;102082.63;5000861;28;20390;-72
2023/02/16 08:53:11;;;;;;;;;;;;;;;10.72;51.44;102091.88;4995435;28;19921;-72
2023/02/16 08:56:04;;;;;;;;;;;;;;;10.81;51.24;102088.59;4995129;28;20374;-72
2023/02/16 08:58:56;;;;;;;;;;;;;;;10.91;51.27;102088.50;5008123;28;19917;-71
2023/02/16 09:01:48;;;;;;;;;;;;;;;11.00;51.34;102095.78;5006010;28;19922;-72
2023/02/16 09:04:37;;;;;;;;;;;;;;;11.06;51.69;102094.66;5008946;28;19914;-73
2023/02/16 09:07:29;;;;;;;;;;;;;;;11.10;51.83;102095.69;5009108;28;19913;-72
2023/02/16 09:10:21;;;;;;;;;;;;;;;11.15;51.87;102105.72;5003252;28;19913;-72
2023/02/16 09:13:14;;;;;;;;;;;;;;;11.18;51.93;102099.72;5009828;28;19913;-72
2023/02/16 09:16:05;;;;;;;;;;;;;;;11.07;52.13;102109.06;5009582;28;19914;-72
2023/02/16 09:18:57;;;;;;;;;;;;;;;11.07;52.31;102109.06;5002301;28;19917;-71
2023/02/16 09:21:49;;;;;;;;;;;;;;;11.10;52.02;102112.03;4993523;28;19914;-71
2023/02/16 09:24:41;;;;;;;;;;;;;;;11.13;51.82;102113.34;4996760;28;19913;-71
2023/02/16 09:27:33;;;;;;;;;;;;;;;11.20;51.50;102115.75;5013173;28;19914;-71
2023/02/16 09:30:23;;;;;;;;;;;;;;;11.19;51.84;102114.13;5010806;28;19913;-72
2023/02/16 09:33:15;;;;;;;;;;;;;;;11.22;51.53;102117.13;5026258;28;20291;-71
2023/02/16 09:36:10;;;;;;;;;;;;;;;11.27;51.00;102113.53;5012804;28;20378;-71
2023/02/16 09:39:02;;;;;;;;;;;;;;;11.28;50.13;102115.13;5008659;28;19921;-71
2023/02/16 09:42:04;;;;;;;;;;;;;;;11.34;49.62;102122.19;5010300;28;19913;-72
2023/02/16 09:45:03;;;;;;;;;;;;;;;11.36;49.08;102128.16;5014885;28;19913;-71
2023/02/16 09:47:56;;;;;;;;;;;;;;;11.34;47.99;102130.34;5016398;28;19913;-71
2023/02/16 09:50:50;;;;;;;;;;;;;;;11.35;47.82;102127.34;5003604;28;19913;-72
2023/02/16 09:53:42;;;;;;;;;;;;;;;11.41;47.62;102130.84;5019985;28;19913;-71
2023/02/16 09:56:42;;;;;;;;;;;;;;;11.45;47.43;102134.63;5016106;28;19913;-71
2023/02/16 09:59:35;;;;;;;;;;;;;;;11.49;47.38;102147.38;5017838;28;19913;-71
2023/02/16 10:02:45;;;;;;;;;;;;;;;11.52;47.13;102137.81;5008662;28;19917;-72
2023/02/16 10:05:40;;;;;;;;;;;;;;;11.61;47.28;102135.28;5006180;28;19913;-71
2023/02/16 10:08:31;;;;;;;;;;;;;;;11.67;47.52;102136.88;5009924;28;19921;-71
2023/02/16 10:11:40;;;;;;;;;;;;;;;11.70;47.57;102141.72;5013402;28;20382;-72
2023/02/16 10:14:35;;;;;;;;;;;;;;;11.77;48.30;102150.41;5013819;28;19936;-70
2023/02/16 10:17:34;;;;;;;;;;;;;;;11.76;48.95;102149.59;4998092;28;19918;-72
2023/02/16 10:20:36;;;;;;;;;;;;;;;11.80;48.98;102145.19;5000073;28;19914;-71
2023/02/16 10:23:37;;;;;;;;;;;;;;;11.83;49.32;102139.19;4999786;28;19913;-71
2023/02/16 10:26:35;;;;;;;;;;;;;;;11.88;49.19;102147.31;5000391;28;19914;-71
2023/02/16 10:29:25;;;;;;;;;;;;;;;11.94;49.12;102142.59;5014548;28;19913;-71
2023/02/16 10:32:25;;;;;;;;;;;;;;;11.97;48.97;102144.75;4994833;28;20298;-72
2023/02/16 10:35:20;;;;;;;;;;;;;;;12.01;49.02;102140.34;5015904;28;19914;-71
2023/02/16 10:38:32;;;;;;;;;;;;;;;12.04;49.42;102134.31;5027536;28;19917;-71
2023/02/16 10:41:32;;;;;;;;;;;;;;;12.07;49.06;102128.28;4983983;28;20388;-70
2023/02/16 10:44:43;;;;;;;;;;;;;;;12.12;49.03;102120.03;5012206;28;19909;-71
2023/02/16 10:47:42;;;;;;;;;;;;;;;12.17;49.35;102124.63;5015598;28;19914;-71
2023/02/16 10:50:38;;;;;;;;;;;;;;;12.18;49.39;102116.16;5005309;28;19913;-72
2023/02/16 10:53:30;;;;;;;;;;;;;;;12.24;49.06;102114.19;5001125;28;19913;-71
2023/02/16 10:56:32;;;;;;;;;;;;;;;12.26;49.33;102117.41;5005300;28;19917;-72
2023/02/16 10:59:25;;;;;;;;;;;;;;;12.29;49.19;102120.34;5011399;28;19917;-71
2023/02/16 11:02:19;;;;;;;;;;;;;;;12.33;48.81;102109.69;4999158;28;19917;-71
2023/02/16 11:05:31;;;;;;;;;;;;;;;12.35;48.90;102104.75;5005495;28;19914;-71
2023/02/16 11:08:22;;;;;;;;;;;;;;;12.40;48.91;102104.69;4994922;28;20048;-71
2023/02/16 11:11:15;;;;;;;;;;;;;;;12.43;48.85;102095.91;5014885;28;19913;-71
2023/02/16 11:14:07;;;;;;;;;;;;;;;12.46;48.71;102103.50;4999547;28;19925;-71
2023/02/16 11:17:12;;;;;;;;;;;;;;;12.51;48.66;102108.91;5010791;28;19917;-70
2023/02/16 11:20:05;;;;;;;;;;;;;;;12.50;48.72;102099.06;5007674;28;20018;-71
2023/02/16 11:23:13;;;;;;;;;;;;;;;12.53;48.51;102097.69;5000062;28;19914;-71
2023/02/16 11:26:15;;;;;;;;;;;;;;;12.58;48.52;102103.91;4995071;28;19913;-71
2023/02/16 11:29:18;;;;;;;;;;;;;;;12.58;48.68;102094.91;5011592;28;19913;-71
2023/02/16 11:32:11;;;;;;;;;;;;;;;12.56;48.33;102092.44;4995121;28;19913;-71
2023/02/16 11:35:03;;;;;;;;;;;;;;;12.60;48.27;102082.56;5001550;28;19917;-70
2023/02/16 11:37:53;;;;;;;;;;;;;;;12.65;47.89;102085.22;4999727;28;19918;-71
2023/02/16 11:40:52;;;;;;;;;;;;;;;12.71;47.56;102085.97;5007829;28;19917;-72
2023/02/16 11:43:45;;;;;;;;;;;;;;;12.74;47.48;102083.47;5013390;28;19917;-72
2023/02/16 11:46:40;;;;;;;;;;;;;;;12.78;47.18;102081.75;5015525;28;20290;-72
2023/02/16 11:49:38;;;;;;;;;;;;;;;12.82;47.56;102077.31;5013047;28;19913;-71
2023/02/16 11:52:30;;;;;;;;;;;;;;;12.79;47.36;102063.47;5008613;28;19914;-71
2023/02/16 11:55:23;;;;;;;;;;;;;;;12.83;47.10;102059.84;5002906;28;19914;-73
2023/02/16 11:58:24;;;;;;;;;;;;;;;12.86;46.67;102061.16;5013970;28;19917;-74
2023/02/16 12:01:27;;;;;;;;;;;;;;;12.85;46.80;102060.34;5008687;28;20313;-73
2023/02/16 12:04:54;;;;;;;;;;;;;;;12.90;46.59;102058.66;5028535;28;19913;-72
2023/02/16 12:07:54;;;;;;;;;;;;;;;13.40;44.07;102055.09;4936539;29;19922;-79
2023/02/16 12:10:46;;;;;;;;;;;;;;;13.49;43.65;102050.53;4916666;29;19918;-78
2023/02/16 12:13:39;;;;;;;;;;;;;;;13.67;43.37;102049.63;5000651;28;19913;-79
2023/02/16 12:16:49;;;;;;;;;;;;;;;13.96;42.95;102048.53;5004122;28;19913;-79
2023/02/16 12:19:44;;;;;;;;;;;;;;;14.16;42.38;102048.09;4983844;28;19917;-80
2023/02/16 12:22:47;;;;;;;;;;;;;;;13.76;41.92;102038.81;4995104;28;20293;-79
2023/02/16 12:25:36;;;;;;;;;;;;;;;13.77;42.63;102034.13;5000901;28;19913;-79
2023/02/16 12:28:46;;;;;;;;;;;;;;;13.90;42.61;102028.69;5007016;28;19921;-77
2023/02/16 12:31:46;;;;;;;;;;;;;;;14.36;42.34;102035.88;5012334;28;19913;-75
2023/02/16 12:34:38;;;;;;;;;;;;;;;14.66;41.12;102034.41;5010433;28;20374;-77
2023/02/16 12:37:30;;;;;;;;;;;;;;;14.11;41.85;102037.25;5012617;28;19917;-71
2023/02/16 12:40:20;;;;;;;;;;;;;;;14.01;41.68;102029.28;5003799;28;19914;-71
2023/02/16 12:43:30;;;;;;;;;;;;;;;14.24;41.25;102030.94;5012301;28;20402;-71
2023/02/16 12:46:33;;;;;;;;;;;;;;;14.81;39.89;102020.34;5025718;28;19913;-71
2023/02/16 12:49:30;;;;;;;;;;;;;;;15.42;39.00;102011.34;5021309;28;20386;-71
2023/02/16 12:52:28;;;;;;;;;;;;;;;15.84;38.27;102001.69;5014999;28;19914;-71
2023/02/16 12:55:21;;;;;;;;;;;;;;;15.27;39.30;102001.59;5022702;28;20289;-71
2023/02/16 12:58:13;;;;;;;;;;;;;;;16.23;37.65;102004.31;5032226;28;19921;-71
2023/02/16 13:01:10;;;;;;;;;;;;;;;15.03;38.62;102000.34;5027521;28;20286;-72
2023/02/16 13:04:19;;;;;;;;;;;;;;;16.61;36.44;101995.44;4990421;28;19913;-70
2023/02/16 13:07:16;;;;;;;;;;;;;;;18.45;32.79;101982.94;5013776;28;20385;-69
2023/02/16 13:10:08;;;;;;;;;;;;;;;19.02;31.47;101983.88;5019391;28;19913;-69
2023/02/16 13:13:14;;;;;;;;;;;;;;;25.55;23.62;101980.91;5002998;28;19917;-69
2023/02/16 13:16:25;;;;;;;;;;;;;;;22.15;26.00;101975.81;5015292;28;19913;-69
2023/02/16 13:19:17;;;;;;;;;;;;;;;20.30;28.92;101986.03;5004416;28;20294;-69
2023/02/16 13:22:16;;;;;;;;;;;;;;;20.99;28.06;101972.97;4971929;28;19917;-69
2023/02/16 13:25:18;;;;;;;;;;;;;;;18.26;32.07;101976.00;4982287;28;19913;-69
2023/02/16 13:28:21;;;;;;;;;;;;;;;19.37;31.03;101980.72;5021999;28;19914;-69
2023/02/16 13:31:37;;;;;;;;;;;;;;;20.97;28.33;101978.88;5026917;28;19913;-70
2023/02/16 13:34:36;;;;;;;;;;;;;;;23.68;25.50;101982.25;5002789;28;20301;-70
2023/02/16 13:37:28;;;;;;;;;;;;;;;23.63;24.81;101981.78;5011574;28;19917;-69
2023/02/16 13:40:36;;;;;;;;;;;;;;;23.75;24.98;101979.59;5016045;28;19913;-70
2023/02/16 13:43:35;;;;;;;;;;;;;;;21.33;27.36;101970.31;5015394;28;19917;-70
2023/02/16 13:46:48;;;;;;;;;;;;;;;21.88;27.49;101973.22;5015695;28;19913;-69
2023/02/16 13:49:41;;;;;;;;;;;;;;;27.43;20.30;101973.22;5022572;28;19913;-70
2023/02/16 13:52:40;;;;;;;;;;;;;;;27.15;20.34;101962.84;5011161;28;19921;-70
2023/02/16 13:55:36;;;;;;;;;;;;;;;21.36;27.32;101951.41;5014473;28;20191;-70
2023/02/16 13:58:29;;;;;;;;;;;;;;;19.90;29.83;101941.03;5007703;28;20286;-69
2023/02/16 14:01:36;;;;;;;;;;;;;;;20.64;28.78;101942.41;4996626;28;19918;-70
2023/02/16 14:04:28;;;;;;;;;;;;;;;20.25;29.31;101947.63;5012748;28;19913;-70
2023/02/16 14:07:30;;;;;;;;;;;;;;;22.32;26.80;101944.09;5008196;28;19913;-70
2023/02/16 14:10:39;;;;;;;;;;;;;;;23.37;24.96;101949.19;4999212;28;20298;-70
2023/02/16 14:13:40;;;;;;;;;;;;;;;20.91;27.99;101945.13;4996649;28;19913;-70
2023/02/16 14:16:33;;;;;;;;;;;;;;;20.05;29.38;101943.06;4997289;28;20305;-70
2023/02/16 14:19:24;;;;;;;;;;;;;;;22.16;25.99;101941.41;5005195;28;19917;-70
2023/02/16 14:22:11;;;;;;;;;;;;;;;19.64;29.90;101947.75;5002735;28;19918;-69
2023/02/16 14:25:01;;;;;;;;;;;;;;;19.67;30.08;101942.66;4982271;28;19921;-69
2023/02/16 14:27:57;;;;;;;;;;;;;;;19.23;30.87;101939.69;5013751;28;19917;-69
2023/02/16 14:30:50;;;;;;;;;;;;;;;22.88;26.24;101947.19;5013552;28;19913;-69
2023/02/16 14:33:43;;;;;;;;;;;;;;;21.81;27.69;101945.34;5030167;28;19913;-70
2023/02/16 14:36:36;;;;;;;;;;;;;;;20.47;29.01;101944.31;5025620;28;20385;-70
2023/02/16 14:39:28;;;;;;;;;;;;;;;23.02;25.76;101950.22;5017345;28;19918;-70
2023/02/16 14:42:23;;;;;;;;;;;;;;;21.10;29.40;101944.41;5014527;28;19913;-70
2023/02/16 14:45:33;;;;;;;;;;;;;;;24.18;24.78;101950.44;5007040;28;20310;-70
2023/02/16 14:48:32;;;;;;;;;;;;;;;21.29;28.36;101944.53;4998346;28;19913;-71
2023/02/16 14:51:42;;;;;;;;;;;;;;;22.68;26.40;101948.38;5015991;28;19917;-71
2023/02/16 14:54:45;;;;;;;;;;;;;;;20.74;29.15;101948.22;5022821;28;19913;-71
2023/02/16 14:57:51;;;;;;;;;;;;;;;22.14;27.44;101948.50;5025831;28;19917;-70
2023/02/16 15:00:52;;;;;;;;;;;;;;;22.95;26.20;101950.13;5018729;28;19913;-71
2023/02/16 15:03:44;;;;;;;;;;;;;;;22.55;26.52;101952.50;4994974;28;20375;-74
2023/02/16 15:06:43;;;;;;;;;;;;;;;20.89;28.85;101949.41;5013539;28;19913;-71
2023/02/16 15:09:36;;;;;;;;;;;;;;;19.23;32.04;101946.00;5014348;28;19913;-71
2023/02/16 15:12:31;;;;;;;;;;;;;;;19.64;31.45;101950.50;4999353;28;19932;-70
2023/02/16 15:15:26;;;;;;;;;;;;;;;20.57;29.52;101945.00;5018076;28;19913;-71
2023/02/16 15:18:19;;;;;;;;;;;;;;;20.84;29.33;101946.91;5008878;28;19916;-71
2023/02/16 15:21:14;;;;;;;;;;;;;;;19.56;31.03;101943.16;5010194;28;19913;-71
2023/02/16 15:24:06;;;;;;;;;;;;;;;19.42;31.98;101939.09;5013775;28;19913;-71
2023/02/16 15:27:00;;;;;;;;;;;;;;;18.91;33.12;101944.09;4994353;28;19914;-70
2023/02/16 15:30:08;;;;;;;;;;;;;;;19.31;32.62;101941.50;4999763;28;19913;-71
2023/02/16 15:33:11;;;;;;;;;;;;;;;18.16;35.00;101937.84;5013458;28;19913;-71
2023/02/16 15:36:06;;;;;;;;;;;;;;;18.38;34.77;101936.69;5017296;28;19917;-72
2023/02/16 15:38:59;;;;;;;;;;;;;;;18.30;35.05;101940.31;5019350;28;20390;-70
2023/02/16 15:41:52;;;;;;;;;;;;;;;17.78;36.18;101934.41;5015230;28;19914;-72